createdAt,value
2019-05-16T00:00:19.349Z,22.51
2019-05-16T00:01:19.614Z,22.43
2019-05-16T00:02:19.232Z,22.50
2019-05-16T00:03:19.233Z,22.43
2019-05-16T00:04:19.200Z,22.48
2019-05-16T00:05:19.210Z,22.47
2019-05-16T00:06:19.181Z,22.48
2019-05-16T00:07:19.380Z,22.38
2019-05-16T00:08:19.161Z,22.51
2019-05-16T00:09:19.156Z,22.44
2019-05-16T00:10:19.142Z,22.45
2019-05-16T00:11:19.156Z,22.50
2019-05-16T00:12:19.126Z,22.41
2019-05-16T00:13:19.100Z,22.48
2019-05-16T00:14:19.109Z,22.47
2019-05-16T00:15:19.089Z,22.47
2019-05-16T00:16:19.095Z,22.39
2019-05-16T00:17:19.073Z,22.43
2019-05-16T00:18:19.067Z,22.36
2019-05-16T00:19:19.038Z,22.41
2019-05-16T00:20:19.285Z,22.48
2019-05-16T00:21:19.010Z,22.47
2019-05-16T00:22:19.005Z,22.43
2019-05-16T00:23:18.994Z,22.41
2019-05-16T00:24:18.993Z,22.44
2019-05-16T00:25:18.994Z,22.43
2019-05-16T00:26:19.741Z,22.44
2019-05-16T00:27:18.953Z,22.38
2019-05-16T00:28:18.941Z,22.41
2019-05-16T00:29:18.921Z,22.38
2019-05-16T00:30:18.931Z,22.39
2019-05-16T00:31:18.909Z,22.43
2019-05-16T00:32:19.199Z,22.41
2019-05-16T00:33:18.889Z,22.41
2019-05-16T00:34:18.976Z,22.41
2019-05-16T00:35:18.988Z,22.41
2019-05-16T00:36:19.117Z,22.41
2019-05-16T00:37:18.846Z,22.39
2019-05-16T00:38:18.833Z,22.38
2019-05-16T00:39:18.930Z,22.38
2019-05-16T00:40:19.025Z,22.39
2019-05-16T00:41:18.802Z,22.38
2019-05-16T00:42:18.796Z,22.39
2019-05-16T00:43:18.775Z,22.36
2019-05-16T00:44:19.025Z,22.43
2019-05-16T00:45:18.876Z,22.36
2019-05-16T00:46:20.086Z,22.33
2019-05-16T00:47:18.765Z,22.47
2019-05-16T00:48:18.717Z,22.33
2019-05-16T00:49:18.797Z,22.39
2019-05-16T00:50:18.706Z,22.35
2019-05-16T00:51:18.697Z,22.41
2019-05-16T00:52:18.676Z,22.41
2019-05-16T00:53:18.670Z,22.36
2019-05-16T00:54:18.739Z,22.41
2019-05-16T00:55:18.654Z,22.35
2019-05-16T00:56:18.842Z,22.36
2019-05-16T00:57:18.932Z,22.39
2019-05-16T00:58:19.068Z,22.41
2019-05-16T00:59:18.596Z,22.41
2019-05-16T01:00:18.585Z,22.41
2019-05-16T01:01:19.111Z,22.36
2019-05-16T01:02:18.573Z,22.41
2019-05-16T01:03:20.231Z,22.43
2019-05-16T01:04:18.546Z,22.41
2019-05-16T01:05:19.185Z,22.38
2019-05-16T01:06:22.518Z,22.33
2019-05-16T01:07:18.780Z,22.35
2019-05-16T01:08:19.096Z,22.38
2019-05-16T01:09:18.899Z,22.38
2019-05-16T01:10:18.528Z,22.38
2019-05-16T01:11:18.673Z,22.35
2019-05-16T01:12:18.446Z,22.35
2019-05-16T01:13:18.721Z,22.36
2019-05-16T01:14:18.428Z,22.41
2019-05-16T01:15:18.568Z,22.39
2019-05-16T01:16:18.824Z,22.38
2019-05-16T01:17:18.396Z,22.39
2019-05-16T01:18:18.895Z,22.33
2019-05-16T01:19:18.731Z,22.33
2019-05-16T01:20:19.209Z,22.35
2019-05-16T01:21:18.668Z,22.35
2019-05-16T01:22:18.765Z,22.32
2019-05-16T01:23:18.469Z,22.38
2019-05-16T01:24:18.895Z,22.39
2019-05-16T01:25:19.458Z,22.35
2019-05-16T01:26:18.680Z,22.36
2019-05-16T01:27:18.533Z,22.39
2019-05-16T01:28:18.310Z,22.32
2019-05-16T01:29:18.900Z,22.36
2019-05-16T01:30:18.798Z,22.39
2019-05-16T01:31:19.098Z,22.32
2019-05-16T01:32:18.993Z,22.35
2019-05-16T01:33:19.201Z,22.43
2019-05-16T01:34:18.268Z,22.39
2019-05-16T01:35:18.802Z,22.36
2019-05-16T01:36:31.829Z,22.35
2019-05-16T01:37:19.164Z,22.33
2019-05-16T01:38:18.310Z,22.35
2019-05-16T01:39:18.311Z,22.32
2019-05-16T01:40:18.937Z,22.29
2019-05-16T01:41:18.186Z,22.39
2019-05-16T01:42:18.511Z,22.32
2019-05-16T01:43:18.115Z,22.33
2019-05-16T01:44:18.435Z,22.32
2019-05-16T01:45:18.820Z,22.33
2019-05-16T01:46:18.307Z,22.35
2019-05-16T01:47:18.395Z,22.36
2019-05-16T01:48:19.151Z,22.29
2019-05-16T01:49:18.765Z,22.26
2019-05-16T01:50:18.331Z,22.30
2019-05-16T01:51:18.584Z,22.33
2019-05-16T01:52:18.009Z,22.35
2019-05-16T01:53:18.163Z,22.36
2019-05-16T01:54:18.121Z,22.33
2019-05-16T01:55:18.622Z,22.32
2019-05-16T01:56:18.135Z,22.38
2019-05-16T01:57:18.236Z,22.26
2019-05-16T01:58:19.976Z,22.29
2019-05-16T01:59:18.259Z,22.32
2019-05-16T02:00:24.551Z,22.36
2019-05-16T02:01:19.335Z,22.28
2019-05-16T02:02:18.376Z,22.30
2019-05-16T02:03:18.980Z,22.29
2019-05-16T02:04:18.365Z,22.30
2019-05-16T02:05:18.739Z,22.30
2019-05-16T02:06:18.448Z,22.32
2019-05-16T02:07:18.808Z,22.32
2019-05-16T02:08:18.344Z,22.32
2019-05-16T02:09:18.896Z,22.32
2019-05-16T02:10:18.262Z,22.32
2019-05-16T02:11:18.218Z,22.30
2019-05-16T02:12:18.476Z,22.29
2019-05-16T02:13:18.186Z,22.35
2019-05-16T02:14:17.801Z,22.30
2019-05-16T02:15:18.339Z,22.35
2019-05-16T02:16:18.781Z,22.35
2019-05-16T02:17:18.421Z,22.32
2019-05-16T02:18:18.459Z,22.30
2019-05-16T02:19:18.776Z,22.29
2019-05-16T02:20:18.084Z,22.28
2019-05-16T02:21:18.230Z,22.32
2019-05-16T02:22:18.000Z,22.29
2019-05-16T02:23:18.833Z,22.29
2019-05-16T02:24:18.293Z,22.29
2019-05-16T02:25:18.518Z,22.30
2019-05-16T02:26:19.098Z,22.32
2019-05-16T02:27:18.221Z,22.29
2019-05-16T02:28:20.169Z,22.29
2019-05-16T02:29:20.554Z,22.33
2019-05-16T02:30:21.269Z,22.32
2019-05-16T02:31:17.570Z,22.29
2019-05-16T02:32:17.549Z,22.30
2019-05-16T02:33:20.890Z,22.30
2019-05-16T02:34:17.561Z,22.30
2019-05-16T02:35:20.700Z,22.29
2019-05-16T02:36:21.271Z,22.32
2019-05-16T02:37:28.793Z,22.29
2019-05-16T02:38:21.121Z,22.30
2019-05-16T02:39:17.484Z,22.33
2019-05-16T02:40:20.803Z,22.32
2019-05-16T02:41:17.471Z,22.30
2019-05-16T02:42:17.457Z,22.30
2019-05-16T02:43:17.474Z,22.26
2019-05-16T02:44:24.129Z,22.32
2019-05-16T02:45:23.902Z,22.28
2019-05-16T02:46:21.567Z,22.22
2019-05-16T02:47:17.389Z,22.25
2019-05-16T02:48:20.923Z,22.25
2019-05-16T02:49:17.377Z,22.23
2019-05-16T02:50:17.366Z,22.32
2019-05-16T02:51:17.350Z,22.22
2019-05-16T02:52:17.329Z,22.33
2019-05-16T02:53:17.351Z,22.30
2019-05-16T02:54:17.377Z,22.35
2019-05-16T02:55:17.296Z,22.30
2019-05-16T02:56:17.311Z,22.28
2019-05-16T02:57:17.313Z,22.28
2019-05-16T02:58:17.306Z,22.32
2019-05-16T02:59:20.357Z,22.23
2019-05-16T03:00:17.258Z,22.32
2019-05-16T03:01:17.246Z,22.29
2019-05-16T03:02:20.274Z,22.29
2019-05-16T03:03:17.227Z,22.33
2019-05-16T03:04:17.200Z,22.35
2019-05-16T03:05:20.600Z,22.32
2019-05-16T03:06:17.179Z,22.26
2019-05-16T03:07:32.957Z,22.32
2019-05-16T03:08:20.807Z,22.29
2019-05-16T03:09:17.177Z,22.28
2019-05-16T03:10:20.131Z,22.30
2019-05-16T03:11:17.120Z,22.28
2019-05-16T03:12:17.117Z,22.30
2019-05-16T03:13:17.115Z,22.33
2019-05-16T03:14:17.089Z,22.25
2019-05-16T03:15:17.101Z,22.30
2019-05-16T03:16:17.065Z,22.25
2019-05-16T03:17:17.083Z,22.29
2019-05-16T03:18:17.051Z,22.25
2019-05-16T03:19:17.064Z,22.30
2019-05-16T03:20:17.032Z,22.28
2019-05-16T03:21:17.019Z,22.33
2019-05-16T03:22:17.017Z,22.30
2019-05-16T03:23:17.008Z,22.32
2019-05-16T03:24:16.999Z,22.23
2019-05-16T03:25:16.973Z,22.30
2019-05-16T03:26:16.959Z,22.29
2019-05-16T03:27:16.952Z,22.22
2019-05-16T03:28:16.945Z,22.26
2019-05-16T03:29:16.933Z,22.28
2019-05-16T03:30:17.354Z,22.26
2019-05-16T03:31:16.901Z,22.28
2019-05-16T03:32:16.899Z,22.30
2019-05-16T03:33:30.175Z,22.33
2019-05-16T03:34:24.898Z,22.30
2019-05-16T03:35:23.959Z,22.30
2019-05-16T03:36:24.341Z,22.32
2019-05-16T03:37:17.828Z,22.28
2019-05-16T03:38:16.829Z,22.32
2019-05-16T03:39:16.881Z,22.28
2019-05-16T03:40:16.793Z,22.28
2019-05-16T03:41:16.806Z,22.28
2019-05-16T03:42:16.862Z,22.30
2019-05-16T03:43:16.760Z,22.30
2019-05-16T03:44:16.754Z,22.30
2019-05-16T03:45:16.737Z,22.28
2019-05-16T03:46:16.727Z,22.29
2019-05-16T03:47:16.718Z,22.29
2019-05-16T03:48:16.709Z,22.33
2019-05-16T03:49:16.704Z,22.30
2019-05-16T03:50:16.695Z,22.28
2019-05-16T03:51:16.697Z,22.28
2019-05-16T03:52:16.661Z,22.32
2019-05-16T03:53:16.656Z,22.30
2019-05-16T03:54:16.661Z,22.23
2019-05-16T03:55:16.641Z,22.20
2019-05-16T03:56:16.619Z,22.32
2019-05-16T03:57:16.618Z,22.26
2019-05-16T03:58:16.604Z,22.29
2019-05-16T03:59:16.604Z,22.28
2019-05-16T04:00:16.632Z,22.33
2019-05-16T04:01:16.558Z,22.29
2019-05-16T04:02:16.577Z,22.20
2019-05-16T04:03:16.539Z,22.29
2019-05-16T04:04:16.591Z,22.28
2019-05-16T04:05:16.526Z,22.30
2019-05-16T04:06:16.514Z,22.28
2019-05-16T04:07:16.504Z,22.29
2019-05-16T04:08:20.721Z,22.23
2019-05-16T04:09:20.848Z,22.30
2019-05-16T04:10:16.474Z,22.30
2019-05-16T04:11:22.169Z,22.32
2019-05-16T04:12:17.438Z,22.29
2019-05-16T04:13:16.427Z,22.32
2019-05-16T04:14:16.442Z,22.22
2019-05-16T04:15:16.407Z,22.32
2019-05-16T04:16:16.410Z,22.25
2019-05-16T04:17:16.393Z,22.26
2019-05-16T04:18:16.387Z,22.30
2019-05-16T04:19:16.387Z,22.28
2019-05-16T04:20:16.357Z,22.33
2019-05-16T04:21:17.865Z,22.30
2019-05-16T04:22:17.350Z,22.28
2019-05-16T04:23:16.330Z,22.28
2019-05-16T04:24:16.308Z,22.29
2019-05-16T04:25:16.317Z,22.29
2019-05-16T04:26:16.306Z,22.28
2019-05-16T04:27:16.275Z,22.30
2019-05-16T04:28:16.267Z,22.30
2019-05-16T04:29:16.290Z,22.32
2019-05-16T04:30:16.244Z,22.25
2019-05-16T04:31:16.226Z,22.25
2019-05-16T04:32:16.222Z,22.26
2019-05-16T04:33:16.209Z,22.30
2019-05-16T04:34:16.216Z,22.29
2019-05-16T04:35:16.189Z,22.26
2019-05-16T04:36:16.172Z,22.28
2019-05-16T04:37:16.181Z,22.32
2019-05-16T04:38:30.271Z,22.23
2019-05-16T04:39:20.615Z,22.28
2019-05-16T04:40:16.151Z,22.26
2019-05-16T04:41:16.117Z,22.33
2019-05-16T04:42:16.116Z,22.32
2019-05-16T04:43:16.110Z,22.26
2019-05-16T04:44:16.094Z,22.28
2019-05-16T04:45:16.093Z,22.29
2019-05-16T04:46:16.066Z,22.26
2019-05-16T04:47:16.056Z,22.25
2019-05-16T04:48:16.041Z,22.29
2019-05-16T04:49:16.091Z,22.25
2019-05-16T04:50:16.038Z,22.15
2019-05-16T04:51:16.017Z,22.13
2019-05-16T04:52:16.010Z,22.29
2019-05-16T04:53:16.107Z,22.15
2019-05-16T04:54:15.978Z,22.29
2019-05-16T04:55:16.003Z,22.11
2019-05-16T04:56:15.958Z,22.22
2019-05-16T04:57:15.943Z,22.18
2019-05-16T04:58:15.945Z,22.14
2019-05-16T04:59:17.001Z,22.13
2019-05-16T05:00:15.915Z,22.07
2019-05-16T05:01:15.906Z,22.07
2019-05-16T05:02:15.903Z,22.07
2019-05-16T05:03:15.879Z,22.06
2019-05-16T05:04:15.870Z,22.11
2019-05-16T05:05:15.862Z,22.10
2019-05-16T05:06:15.888Z,22.14
2019-05-16T05:07:15.847Z,22.08
2019-05-16T05:08:15.838Z,22.10
2019-05-16T05:09:15.846Z,22.11
2019-05-16T05:10:15.800Z,22.08
2019-05-16T05:11:15.888Z,22.10
2019-05-16T05:12:15.788Z,22.08
2019-05-16T05:13:15.770Z,22.08
2019-05-16T05:14:15.794Z,21.96
2019-05-16T05:15:15.758Z,21.99
2019-05-16T05:16:15.746Z,21.98
2019-05-16T05:17:15.738Z,22.06
2019-05-16T05:18:15.714Z,22.02
2019-05-16T05:19:15.710Z,21.95
2019-05-16T05:20:15.706Z,22.06
2019-05-16T05:21:15.722Z,22.00
2019-05-16T05:22:15.670Z,22.00
2019-05-16T05:23:15.663Z,21.99
2019-05-16T05:24:15.642Z,21.95
2019-05-16T05:25:15.661Z,21.99
2019-05-16T05:26:15.679Z,21.99
2019-05-16T05:27:15.621Z,21.96
2019-05-16T05:28:15.609Z,21.98
2019-05-16T05:29:15.589Z,22.00
2019-05-16T05:30:15.586Z,21.96
2019-05-16T05:31:15.591Z,21.95
2019-05-16T05:32:15.559Z,21.92
2019-05-16T05:33:15.558Z,21.95
2019-05-16T05:34:15.543Z,21.88
2019-05-16T05:35:15.553Z,21.89
2019-05-16T05:36:15.524Z,21.88
2019-05-16T05:37:15.525Z,21.91
2019-05-16T05:38:15.492Z,21.85
2019-05-16T05:39:15.759Z,21.88
2019-05-16T05:40:15.471Z,21.89
2019-05-16T05:41:15.492Z,21.88
2019-05-16T05:42:15.446Z,21.85
2019-05-16T05:43:15.431Z,21.91
2019-05-16T05:44:15.422Z,21.85
2019-05-16T05:45:15.442Z,21.85
2019-05-16T05:46:15.404Z,21.85
2019-05-16T05:47:15.397Z,21.89
2019-05-16T05:48:15.389Z,22.04
2019-05-16T05:49:15.417Z,21.93
2019-05-16T05:50:15.371Z,21.98
2019-05-16T05:51:15.352Z,22.08
2019-05-16T05:52:15.400Z,22.00
2019-05-16T05:53:15.337Z,22.00
2019-05-16T05:54:15.314Z,21.99
2019-05-16T05:55:15.311Z,22.00
2019-05-16T05:56:15.312Z,22.07
2019-05-16T05:57:15.285Z,22.08
2019-05-16T05:58:15.268Z,22.13
2019-05-16T05:59:15.264Z,22.11
2019-05-16T06:00:15.270Z,22.07
2019-05-16T06:01:15.251Z,22.13
2019-05-16T06:02:15.249Z,22.08
2019-05-16T06:03:15.216Z,22.11
2019-05-16T06:04:15.210Z,22.11
2019-05-16T06:05:15.191Z,22.11
2019-05-16T06:06:15.197Z,22.08
2019-05-16T06:07:15.194Z,22.13
2019-05-16T06:08:15.169Z,22.14
2019-05-16T06:09:26.284Z,22.14
2019-05-16T06:10:16.137Z,22.15
2019-05-16T06:11:15.134Z,22.13
2019-05-16T06:12:15.135Z,22.13
2019-05-16T06:13:15.134Z,22.18
2019-05-16T06:14:15.108Z,22.13
2019-05-16T06:15:15.119Z,22.18
2019-05-16T06:16:15.091Z,22.13
2019-05-16T06:17:15.138Z,22.07
2019-05-16T06:18:15.454Z,22.08
2019-05-16T06:19:15.069Z,22.06
2019-05-16T06:20:15.116Z,22.07
2019-05-16T06:21:15.040Z,22.11
2019-05-16T06:22:15.045Z,22.10
2019-05-16T06:23:15.076Z,22.11
2019-05-16T06:24:16.328Z,22.11
2019-05-16T06:25:15.046Z,22.10
2019-05-16T06:26:14.959Z,22.08
2019-05-16T06:27:15.004Z,22.13
2019-05-16T06:28:14.947Z,22.11
2019-05-16T06:29:14.946Z,22.17
2019-05-16T06:30:14.918Z,22.13
2019-05-16T06:31:14.906Z,22.11
2019-05-16T06:32:14.890Z,22.15
2019-05-16T06:33:14.887Z,22.11
2019-05-16T06:34:15.452Z,22.11
2019-05-16T06:35:14.869Z,22.13
2019-05-16T06:36:14.871Z,22.14
2019-05-16T06:37:14.845Z,22.25
2019-05-16T06:38:14.841Z,22.15
2019-05-16T06:39:14.836Z,22.08
2019-05-16T06:40:14.809Z,22.13
2019-05-16T06:41:14.797Z,22.22
2019-05-16T06:42:14.783Z,22.14
2019-05-16T06:43:14.778Z,22.28
2019-05-16T06:44:14.774Z,22.14
2019-05-16T06:45:14.757Z,22.29
2019-05-16T06:46:14.741Z,22.28
2019-05-16T06:47:19.746Z,22.25
2019-05-16T06:48:15.731Z,22.25
2019-05-16T06:49:14.713Z,22.33
2019-05-16T06:50:14.704Z,22.22
2019-05-16T06:51:14.709Z,22.32
2019-05-16T06:52:14.695Z,22.29
2019-05-16T06:53:14.730Z,22.35
2019-05-16T06:54:14.660Z,22.33
2019-05-16T06:55:14.642Z,22.26
2019-05-16T06:56:14.649Z,22.33
2019-05-16T06:57:14.628Z,22.23
2019-05-16T06:58:14.622Z,22.32
2019-05-16T06:59:14.620Z,22.26
2019-05-16T07:00:14.580Z,22.18
2019-05-16T07:01:14.586Z,22.35
2019-05-16T07:02:26.721Z,22.30
2019-05-16T07:03:15.590Z,22.30
2019-05-16T07:04:14.550Z,22.30
2019-05-16T07:05:14.524Z,22.32
2019-05-16T07:06:36.036Z,22.26
2019-05-16T07:07:15.520Z,22.25
2019-05-16T07:08:14.528Z,22.32
2019-05-16T07:09:14.510Z,22.25
2019-05-16T07:10:14.489Z,22.20
2019-05-16T07:11:14.526Z,22.17
2019-05-16T07:12:14.461Z,22.11
2019-05-16T07:13:14.441Z,22.20
2019-05-16T07:14:14.427Z,22.20
2019-05-16T07:15:14.673Z,22.20
2019-05-16T07:16:14.415Z,22.20
2019-05-16T07:17:14.413Z,22.23
2019-05-16T07:18:14.406Z,22.22
2019-05-16T07:19:14.385Z,22.30
2019-05-16T07:20:14.365Z,22.20
2019-05-16T07:21:14.354Z,22.29
2019-05-16T07:22:14.337Z,22.22
2019-05-16T07:23:14.330Z,22.25
2019-05-16T07:24:16.899Z,22.23
2019-05-16T07:25:14.318Z,22.28
2019-05-16T07:26:14.307Z,22.30
2019-05-16T07:27:14.352Z,22.32
2019-05-16T07:28:14.281Z,22.36
2019-05-16T07:29:14.284Z,22.36
2019-05-16T07:30:14.281Z,22.39
2019-05-16T07:31:18.461Z,22.39
2019-05-16T07:32:14.244Z,22.38
2019-05-16T07:33:14.294Z,22.43
2019-05-16T07:34:14.741Z,22.38
2019-05-16T07:35:14.246Z,22.41
2019-05-16T07:36:15.950Z,22.38
2019-05-16T07:37:14.190Z,22.43
2019-05-16T07:38:14.206Z,22.39
2019-05-16T07:39:14.164Z,22.47
2019-05-16T07:40:20.101Z,22.43
2019-05-16T07:41:15.212Z,22.45
2019-05-16T07:42:14.152Z,22.45
2019-05-16T07:43:14.125Z,22.51
2019-05-16T07:44:14.099Z,22.54
2019-05-16T07:45:14.107Z,22.41
2019-05-16T07:46:14.084Z,22.53
2019-05-16T07:47:14.061Z,22.45
2019-05-16T07:48:14.054Z,22.50
2019-05-16T07:49:14.065Z,22.51
2019-05-16T07:50:14.042Z,22.41
2019-05-16T07:51:14.023Z,22.57
2019-05-16T07:52:14.012Z,22.55
2019-05-16T07:53:14.019Z,22.60
2019-05-16T07:54:14.010Z,22.59
2019-05-16T07:55:13.982Z,22.55
2019-05-16T07:56:13.969Z,22.59
2019-05-16T07:57:19.577Z,22.54
2019-05-16T07:58:14.957Z,22.59
2019-05-16T07:59:13.946Z,22.63
2019-05-16T08:00:13.916Z,22.60
2019-05-16T08:01:13.915Z,22.54
2019-05-16T08:02:13.977Z,22.51
2019-05-16T08:03:13.891Z,22.62
2019-05-16T08:04:13.887Z,22.57
2019-05-16T08:05:13.937Z,22.65
2019-05-16T08:06:13.863Z,22.69
2019-05-16T08:07:13.844Z,22.60
2019-05-16T08:08:13.845Z,22.68
2019-05-16T08:09:13.855Z,22.60
2019-05-16T08:10:13.820Z,22.62
2019-05-16T08:11:13.803Z,22.75
2019-05-16T08:12:13.786Z,22.65
2019-05-16T08:13:17.194Z,22.69
2019-05-16T08:14:13.778Z,22.68
2019-05-16T08:15:13.756Z,22.72
2019-05-16T08:16:13.733Z,22.69
2019-05-16T08:17:13.727Z,22.75
2019-05-16T08:18:13.715Z,22.70
2019-05-16T08:19:13.714Z,22.75
2019-05-16T08:20:13.698Z,22.73
2019-05-16T08:21:16.753Z,22.66
2019-05-16T08:22:13.674Z,22.69
2019-05-16T08:23:13.659Z,22.66
2019-05-16T08:24:14.935Z,22.76
2019-05-16T08:25:13.659Z,22.78
2019-05-16T08:26:13.637Z,22.69
2019-05-16T08:27:13.630Z,22.72
2019-05-16T08:28:13.617Z,22.70
2019-05-16T08:29:13.774Z,22.75
2019-05-16T08:30:13.589Z,22.68
2019-05-16T08:31:13.617Z,22.73
2019-05-16T08:32:13.571Z,22.73
2019-05-16T08:33:13.761Z,22.83
2019-05-16T08:34:13.567Z,22.75
2019-05-16T08:35:13.531Z,22.81
2019-05-16T08:36:13.545Z,22.73
2019-05-16T08:37:34.127Z,22.81
2019-05-16T08:38:14.512Z,22.78
2019-05-16T08:39:13.481Z,22.75
2019-05-16T08:40:13.485Z,22.72
2019-05-16T08:41:17.121Z,22.83
2019-05-16T08:42:13.481Z,22.73
2019-05-16T08:43:13.446Z,22.70
2019-05-16T08:44:13.421Z,22.65
2019-05-16T08:45:13.664Z,22.80
2019-05-16T08:46:13.400Z,22.73
2019-05-16T08:47:13.392Z,22.83
2019-05-16T08:48:13.391Z,22.76
2019-05-16T08:49:13.389Z,22.76
2019-05-16T08:50:15.421Z,22.78
2019-05-16T08:51:13.352Z,22.80
2019-05-16T08:52:13.346Z,22.76
2019-05-16T08:53:13.969Z,22.75
2019-05-16T08:54:13.741Z,22.75
2019-05-16T08:55:13.738Z,22.81
2019-05-16T08:56:13.443Z,22.78
2019-05-16T08:58:14.262Z,22.73
2019-05-16T08:59:13.657Z,22.75
2019-05-16T09:00:15.142Z,22.78
2019-05-16T09:02:14.220Z,22.73
2019-05-16T09:03:13.212Z,22.78
2019-05-16T09:04:13.226Z,22.75
2019-05-16T09:05:13.897Z,22.75
2019-05-16T09:06:13.196Z,22.80
2019-05-16T09:07:13.224Z,22.81
2019-05-16T09:08:13.161Z,22.87
2019-05-16T09:09:29.769Z,22.80
2019-05-16T09:10:15.891Z,22.80
2019-05-16T09:10:40.498Z,22.76
2019-05-16T09:10:45.702Z,22.83
2019-05-16T09:11:29.377Z,22.87
2019-05-16T09:12:14.110Z,22.76
2019-05-16T09:13:13.097Z,22.88
2019-05-16T09:14:13.094Z,22.81
2019-05-16T09:15:13.092Z,22.78
2019-05-16T09:16:13.071Z,22.83
2019-05-16T09:17:13.054Z,22.83
2019-05-16T09:18:13.042Z,22.75
2019-05-16T09:19:13.030Z,22.75
2019-05-16T09:20:13.025Z,22.76
2019-05-16T09:21:13.035Z,22.85
2019-05-16T09:22:13.013Z,22.80
2019-05-16T09:23:12.987Z,22.88
2019-05-16T09:24:12.980Z,22.91
2019-05-16T09:25:12.968Z,22.81
2019-05-16T09:26:16.024Z,22.88
2019-05-16T09:27:13.945Z,22.87
2019-05-16T09:28:12.950Z,22.91
2019-05-16T09:29:12.940Z,22.90
2019-05-16T09:30:12.921Z,22.87
2019-05-16T09:31:12.905Z,22.91
2019-05-16T09:32:17.902Z,22.91
2019-05-16T09:33:13.889Z,22.88
2019-05-16T09:34:12.872Z,22.90
2019-05-16T09:35:12.866Z,22.85
2019-05-16T09:36:12.852Z,22.91
2019-05-16T09:37:13.107Z,22.96
2019-05-16T09:38:12.818Z,22.88
2019-05-16T09:39:12.810Z,22.94
2019-05-16T09:40:12.802Z,22.91
2019-05-16T09:41:12.816Z,23.03
2019-05-16T09:42:12.782Z,23.00
2019-05-16T09:43:12.781Z,23.05
2019-05-16T09:44:12.762Z,23.03
2019-05-16T09:45:12.765Z,23.10
2019-05-16T09:46:12.742Z,23.08
2019-05-16T09:47:12.725Z,23.15
2019-05-16T09:48:12.718Z,23.20
2019-05-16T09:49:19.320Z,23.18
2019-05-16T09:50:13.722Z,23.21
2019-05-16T09:51:12.696Z,23.15
2019-05-16T09:52:12.671Z,23.20
2019-05-16T09:53:12.661Z,23.24
2019-05-16T09:54:12.653Z,23.21
2019-05-16T09:55:12.631Z,23.20
2019-05-16T09:56:12.639Z,23.20
2019-05-16T09:57:12.624Z,23.31
2019-05-16T09:58:12.602Z,23.23
2019-05-16T09:59:12.601Z,23.32
2019-05-16T10:00:12.582Z,23.31
2019-05-16T10:01:12.586Z,23.32
2019-05-16T10:02:12.580Z,23.31
2019-05-16T10:03:12.558Z,23.36
2019-05-16T10:04:12.530Z,23.31
2019-05-16T10:05:13.650Z,23.39
2019-05-16T10:06:12.532Z,23.25
2019-05-16T10:07:12.519Z,23.34
2019-05-16T10:08:12.486Z,23.28
2019-05-16T10:09:12.507Z,23.34
2019-05-16T10:10:12.472Z,23.28
2019-05-16T10:11:12.488Z,23.34
2019-05-16T10:12:15.617Z,23.36
2019-05-16T10:13:13.459Z,23.34
2019-05-16T10:14:12.431Z,23.34
2019-05-16T10:15:12.413Z,23.32
2019-05-16T10:16:12.407Z,23.41
2019-05-16T10:17:12.402Z,23.31
2019-05-16T10:18:12.386Z,23.28
2019-05-16T10:19:12.384Z,23.37
2019-05-16T10:20:12.357Z,23.47
2019-05-16T10:21:12.356Z,23.44
2019-05-16T10:22:12.353Z,23.43
2019-05-16T10:23:14.557Z,23.39
2019-05-16T10:24:12.324Z,23.40
2019-05-16T10:25:12.316Z,23.47
2019-05-16T10:26:12.296Z,23.40
2019-05-16T10:27:12.399Z,23.44
2019-05-16T10:28:12.283Z,23.46
2019-05-16T10:29:12.262Z,23.47
2019-05-16T10:30:12.251Z,23.46
2019-05-16T10:31:12.243Z,23.46
2019-05-16T10:32:12.259Z,23.50
2019-05-16T10:33:12.217Z,23.48
2019-05-16T10:34:12.211Z,23.41
2019-05-16T10:35:12.209Z,23.50
2019-05-16T10:36:12.178Z,23.46
2019-05-16T10:37:12.341Z,23.46
2019-05-16T10:38:12.161Z,23.50
2019-05-16T10:39:12.179Z,23.50
2019-05-16T10:40:12.136Z,23.54
2019-05-16T10:41:12.139Z,23.47
2019-05-16T10:42:24.911Z,23.55
2019-05-16T10:43:13.110Z,23.48
2019-05-16T10:44:12.104Z,23.48
2019-05-16T10:45:12.088Z,23.48
2019-05-16T10:46:12.078Z,23.48
2019-05-16T10:47:12.061Z,23.50
2019-05-16T10:48:12.058Z,23.46
2019-05-16T10:49:12.048Z,23.50
2019-05-16T10:50:12.035Z,23.50
2019-05-16T10:51:12.017Z,23.61
2019-05-16T10:52:12.017Z,23.50
2019-05-16T10:53:28.420Z,23.54
2019-05-16T10:54:14.302Z,23.55
2019-05-16T10:55:12.004Z,23.61
2019-05-16T10:56:12.042Z,23.59
2019-05-16T10:57:12.012Z,23.51
2019-05-16T10:58:11.960Z,23.54
2019-05-16T10:59:53.288Z,23.51
2019-05-16T11:00:26.482Z,23.62
2019-05-16T11:01:24.271Z,23.51
2019-05-16T11:02:12.917Z,23.56
2019-05-16T11:03:11.920Z,23.63
2019-05-16T11:04:24.220Z,23.62
2019-05-16T11:05:25.165Z,23.51
2019-05-16T11:06:24.753Z,23.56
2019-05-16T11:07:12.837Z,23.63
2019-05-16T11:08:11.859Z,23.62
2019-05-16T11:09:11.832Z,23.58
2019-05-16T11:10:11.806Z,23.58
2019-05-16T11:11:11.823Z,23.56
2019-05-16T11:12:11.792Z,23.50
2019-05-16T11:13:11.786Z,23.54
2019-05-16T11:14:11.772Z,23.47
2019-05-16T11:15:11.914Z,23.47
2019-05-16T11:16:11.737Z,23.46
2019-05-16T11:17:12.841Z,23.37
2019-05-16T11:18:11.735Z,23.44
2019-05-16T11:19:17.374Z,23.44
2019-05-16T11:20:12.764Z,23.50
2019-05-16T11:21:11.684Z,23.44
2019-05-16T11:22:11.685Z,23.37
2019-05-16T11:23:11.690Z,23.32
2019-05-16T11:24:13.307Z,23.31
2019-05-16T11:25:24.883Z,23.32
2019-05-16T11:26:12.626Z,23.32
2019-05-16T11:27:11.624Z,23.27
2019-05-16T11:28:11.635Z,23.34
2019-05-16T11:29:11.607Z,23.28
2019-05-16T11:30:11.635Z,23.25
2019-05-16T11:31:11.575Z,23.25
2019-05-16T11:32:11.575Z,23.31
2019-05-16T11:33:11.579Z,23.32
2019-05-16T11:34:11.612Z,23.36
2019-05-16T11:35:11.534Z,23.32
2019-05-16T11:36:12.877Z,23.34
2019-05-16T11:37:11.525Z,23.20
2019-05-16T11:38:11.551Z,23.21
2019-05-16T11:39:11.490Z,23.20
2019-05-16T11:40:11.476Z,23.28
2019-05-16T11:41:11.506Z,23.28
2019-05-16T11:42:11.469Z,23.36
2019-05-16T11:43:18.318Z,23.31
2019-05-16T11:44:12.440Z,23.20
2019-05-16T11:45:11.423Z,23.31
2019-05-16T11:46:11.418Z,23.31
2019-05-16T11:47:11.403Z,23.28
2019-05-16T11:48:11.409Z,23.36
2019-05-16T11:49:11.383Z,23.31
2019-05-16T11:50:11.385Z,23.32
2019-05-16T11:51:11.358Z,23.31
2019-05-16T11:52:11.355Z,23.31
2019-05-16T11:53:11.361Z,23.28
2019-05-16T11:54:11.350Z,23.40
2019-05-16T11:55:11.323Z,23.25
2019-05-16T11:56:11.327Z,23.32
2019-05-16T11:57:11.286Z,23.28
2019-05-16T11:58:11.298Z,23.28
2019-05-16T11:59:11.281Z,23.23
2019-05-16T12:00:11.259Z,23.24
2019-05-16T12:01:11.244Z,23.24
2019-05-16T12:02:11.252Z,23.34
2019-05-16T12:03:11.241Z,23.36
2019-05-16T12:04:11.234Z,23.28
2019-05-16T12:05:11.201Z,23.32
2019-05-16T12:06:11.390Z,23.36
2019-05-16T12:07:11.275Z,23.34
2019-05-16T12:08:11.166Z,23.37
2019-05-16T12:09:11.191Z,23.36
2019-05-16T12:10:11.203Z,23.40
2019-05-16T12:11:11.134Z,23.31
2019-05-16T12:12:11.129Z,23.40
2019-05-16T12:13:24.141Z,23.36
2019-05-16T12:14:12.102Z,23.36
2019-05-16T12:15:11.092Z,23.44
2019-05-16T12:16:11.097Z,23.44
2019-05-16T12:17:11.066Z,23.43
2019-05-16T12:18:11.055Z,23.47
2019-05-16T12:19:11.052Z,23.41
2019-05-16T12:20:11.034Z,23.44
2019-05-16T12:21:11.025Z,23.54
2019-05-16T12:22:11.024Z,23.43
2019-05-16T12:23:11.052Z,23.54
2019-05-16T12:24:10.996Z,23.51
2019-05-16T12:25:10.980Z,23.55
2019-05-16T12:26:10.967Z,23.55
2019-05-16T12:27:10.958Z,23.59
2019-05-16T12:28:10.946Z,23.65
2019-05-16T12:29:10.950Z,23.65
2019-05-16T12:30:13.686Z,23.63
2019-05-16T12:31:10.936Z,23.62
2019-05-16T12:32:10.927Z,23.66
2019-05-16T12:33:10.889Z,23.63
2019-05-16T12:34:10.904Z,23.74
2019-05-16T12:35:10.892Z,23.66
2019-05-16T12:36:10.871Z,23.68
2019-05-16T12:37:10.847Z,23.71
2019-05-16T12:38:10.842Z,23.76
2019-05-16T12:39:10.833Z,23.68
2019-05-16T12:40:10.819Z,23.76
2019-05-16T12:41:10.810Z,23.69
2019-05-16T12:42:10.799Z,23.58
2019-05-16T12:43:10.796Z,23.63
2019-05-16T12:44:10.793Z,23.54
2019-05-16T12:45:10.757Z,23.55
2019-05-16T12:46:10.752Z,23.41
2019-05-16T12:47:10.753Z,23.43
2019-05-16T12:48:10.724Z,23.43
2019-05-16T12:49:10.720Z,23.47
2019-05-16T12:50:10.709Z,23.46
2019-05-16T12:51:10.695Z,23.32
2019-05-16T12:52:10.705Z,23.34